Stormwatcher's Retreat Logo




                  Temp     Hi    Low   Out    Dew  Wind  Wind   Wind    Hi    Hi   Wind   Heat    THW   THSW                Rain  Solar   Solar Hi Solar   UV    UV    Hi     Heat    Cool    In     In    In     In     In   In Air          Wind  Wind    ISS   Arc.
  Date    Time     Out   Temp   Temp   Hum    Pt. Speed   Dir    Run Speed   Dir  Chill  Index  Index  Index   Bar    Rain  Rate   Rad.  Energy    Rad.  Index  Dose   UV     D-D     D-D    Temp   Hum    Dew   Heat    EMC Density     ET   Samp   Tx   Recept  Int.
------------------------------------------------------------------------------------------------------------------------------------------------------------------------------------------------------------------------------------------------------------------------
 4/16/24 12:10a   46.8   46.9   46.8    81   41.3   3.0   ENE   0.50   8.0    NE   46.1   46.6   45.9   42.4  30.428  0.00  0.00     0     0.00      0     0.0  0.00   0.0   0.126   0.000   69.5    50   50.0   67.9   9.26  .0754    0.000   203    7    100.0   10 
 4/16/24 12:20a   46.8   46.9   46.8    81   41.3   2.0   ENE   0.33   6.0   ENE   46.8   46.6   46.6   43.1  30.425  0.00  0.00     0     0.00      0     0.0  0.00   0.0   0.126   0.000   69.5    50   50.0   67.9   9.26  .0753    0.000   201    7    100.0   10 
 4/16/24 12:30a   46.8   46.9   46.8    81   41.3   3.0    NE   0.50   6.0    NE   46.1   46.6   45.9   42.4  30.425  0.00  0.00     0     0.00      0     0.0  0.00   0.0   0.126   0.000   69.4    50   49.9   67.9   9.26  .0754    0.000   202    7    100.0   10 
 4/16/24 12:40a   46.7   46.9   46.7    81   41.2   2.0   ENE   0.33   5.0    NE   46.7   46.5   46.5   43.0  30.424  0.00  0.00     0     0.00      0     0.0  0.00   0.0   0.127   0.000   69.4    50   49.9   67.9   9.26  .0754    0.000   204    7    100.0   10 
 4/16/24 12:50a   46.6   46.8   46.6    81   41.1   2.0   ENE   0.33   6.0    NE   46.6   46.4   46.4   42.9  30.425  0.00  0.00     0     0.00      0     0.0  0.00   0.0   0.128   0.000   69.3    50   49.9   67.8   9.26  .0754    0.000   203    7    100.0   10 
 4/16/24  1:00a   46.5   46.6   46.4    81   41.0   2.0   ENE   0.33   5.0    NE   46.5   46.3   46.3   42.8  30.429  0.00  0.00     0     0.00      0     0.0  0.00   0.0   0.128   0.000   69.2    50   49.8   67.7   9.27  .0754    0.001   203    7    100.0   10 
 4/16/24  1:10a   46.4   46.5   46.3    81   40.9   2.0   ENE   0.33   5.0   ENE   46.4   46.2   46.2   42.7  30.424  0.00  0.00     0     0.00      0     0.0  0.00   0.0   0.129   0.000   69.2    50   49.8   67.7   9.27  .0754    0.000   202    7    100.0   10 
 4/16/24  1:20a   46.5   46.5   46.4    82   41.3   2.0     E   0.33   4.0    NE   46.5   46.4   46.4   42.9  30.426  0.00  0.00     0     0.00      0     0.0  0.00   0.0   0.128   0.000   69.1    50   49.7   67.7   9.27  .0754    0.000   203    7    100.0   10 
 4/16/24  1:30a   46.4   46.6   46.3    81   40.9   1.0    NE   0.17   5.0   ENE   46.4   46.2   46.2   42.7  30.424  0.00  0.00     0     0.00      0     0.0  0.00   0.0   0.129   0.000   69.1    50   49.7   67.7   9.27  .0754    0.000   204    7    100.0   10 
 4/16/24  1:40a   46.3   46.4   46.3    82   41.1   2.0    NE   0.33   5.0    NE   46.3   46.2   46.2   42.7  30.420  0.00  0.00     0     0.00      0     0.0  0.00   0.0   0.130   0.000   69.0    50   49.6   67.6   9.27  .0754    0.000   203    7    100.0   10 
 4/16/24  1:50a   46.5   46.5   46.3    82   41.3   2.0   ENE   0.33   4.0   ENE   46.5   46.4   46.4   42.9  30.415  0.00  0.00     0     0.00      0     0.0  0.00   0.0   0.128   0.000   68.9    50   49.5   67.5   9.27  .0754    0.000   202    7    100.0   10 
 4/16/24  2:00a   46.5   46.6   46.4    82   41.3   2.0    NE   0.33   4.0    NE   46.5   46.4   46.4   42.9  30.411  0.00  0.00     0     0.00      0     0.0  0.00   0.0   0.128   0.000   68.9    50   49.5   67.5   9.27  .0754    0.001   204    7    100.0   10 
 4/16/24  2:10a   46.5   46.6   46.5    82   41.3   2.0   ENE   0.33   4.0    NE   46.5   46.4   46.4   42.9  30.409  0.00  0.00     0     0.00      0     0.0  0.00   0.0   0.128   0.000   68.8    50   49.4   67.4   9.27  .0754    0.000   203    7    100.0   10 
 4/16/24  2:20a   46.5   46.6   46.5    82   41.3   3.0   ENE   0.50  10.0    NE   45.8   46.4   45.7   42.2  30.407  0.00  0.00     0     0.00      0     0.0  0.00   0.0   0.128   0.000   68.8    50   49.4   67.4   9.27  .0754    0.000   197    7     99.5   10 
 4/16/24  2:30a   46.1   46.5   46.1    82   40.9   1.0   ENE   0.17   5.0   ENE   46.1   46.0   46.0   42.5  30.409  0.00  0.00     0     0.00      0     0.0  0.00   0.0   0.131   0.000   68.7    50   49.3   67.3   9.28  .0754    0.000   204    7    100.0   10 
 4/16/24  2:40a   45.7   46.1   45.7    82   40.5   1.0     E   0.17   2.0   ENE   45.7   45.6   45.6   42.1  30.409  0.00  0.00     0     0.00      0     0.0  0.00   0.0   0.134   0.000   68.7    50   49.3   67.3   9.28  .0754    0.000   204    7    100.0   10 
 4/16/24  2:50a   45.6   45.7   45.5    82   40.4   1.0     E   0.17   4.0   ESE   45.6   45.5   45.5   42.0  30.409  0.00  0.00     0     0.00      0     0.0  0.00   0.0   0.135   0.000   68.6    50   49.2   67.2   9.28  .0755    0.000   200    7    100.0   10 
 4/16/24  3:00a   45.8   45.8   45.6    83   40.9   1.0     E   0.17   3.0     E   45.8   45.7   45.7   42.2  30.410  0.00  0.00     0     0.00      0     0.0  0.00   0.0   0.133   0.000   68.5    50   49.1   67.1   9.28  .0755    0.001   204    7    100.0   10 
 4/16/24  3:10a   45.9   45.9   45.7    83   41.0   2.0     E   0.33   6.0     E   45.9   45.8   45.8   42.3  30.409  0.00  0.00     0     0.00      0     0.0  0.00   0.0   0.133   0.000   68.5    50   49.1   67.1   9.28  .0755    0.000   203    7    100.0   10 
 4/16/24  3:20a   45.9   46.0   45.8    83   41.0   2.0     E   0.33   4.0   ENE   45.9   45.8   45.8   42.3  30.410  0.00  0.00     0     0.00      0     0.0  0.00   0.0   0.133   0.000   68.4    50   49.0   67.1   9.28  .0755    0.000   201    7    100.0   10 
 4/16/24  3:30a   46.0   46.0   45.9    83   41.1   1.0     E   0.17   4.0   ENE   46.0   45.9   45.9   42.4  30.413  0.00  0.00     0     0.00      0     0.0  0.00   0.0   0.132   0.000   68.4    50   49.0   67.1   9.28  .0755    0.000   201    7    100.0   10 
 4/16/24  3:40a   46.0   46.0   45.9    83   41.1   1.0     E   0.17   3.0   ENE   46.0   45.9   45.9   42.4  30.409  0.00  0.00     0     0.00      0     0.0  0.00   0.0   0.132   0.000   68.3    50   48.9   67.0   9.28  .0755    0.000   204    7    100.0   10 
 4/16/24  3:50a   46.0   46.0   45.9    83   41.1   1.0     E   0.17   3.0     E   46.0   45.9   45.9   42.4  30.409  0.00  0.00     0     0.00      0     0.0  0.00   0.0   0.132   0.000   68.3    50   48.9   67.0   9.28  .0755    0.000   204    7    100.0   10 
 4/16/24  4:00a   45.9   46.0   45.9    83   41.0   1.0     E   0.17   4.0   ENE   45.9   45.8   45.8   42.3  30.410  0.00  0.00     0     0.00      0     0.0  0.00   0.0   0.133   0.000   68.2    50   48.8   66.9   9.29  .0755    0.001   203    7    100.0   10 
 4/16/24  4:10a   46.0   46.0   45.9    83   41.1   2.0     E   0.33   7.0     E   46.0   45.9   45.9   42.4  30.410  0.00  0.00     0     0.00      0     0.0  0.00   0.0   0.132   0.000   68.2    50   48.8   66.9   9.29  .0755    0.000   202    7    100.0   10 
 4/16/24  4:20a   45.9   46.1   45.9    83   41.0   2.0     E   0.33   4.0   ENE   45.9   45.8   45.8   42.3  30.409  0.00  0.00     0     0.00      0     0.0  0.00   0.0   0.133   0.000   68.1    50   48.8   66.8   9.29  .0756    0.000   204    7    100.0   10 
 4/16/24  4:30a   45.8   46.0   45.8    84   41.2   2.0     E   0.33   3.0     E   45.8   45.7   45.7   42.2  30.407  0.00  0.00     0     0.00      0     0.0  0.00   0.0   0.133   0.000   68.0    50   48.7   66.7   9.29  .0756    0.000   203    7    100.0   10 
 4/16/24  4:40a   45.8   45.8   45.7    84   41.2   2.0     E   0.33   4.0    NE   45.8   45.7   45.7   42.2  30.408  0.00  0.00     0     0.00      0     0.0  0.00   0.0   0.133   0.000   68.0    50   48.7   66.7   9.29  .0756    0.000   203    7    100.0   10 
 4/16/24  4:50a   46.4   46.4   45.8    84   41.8   3.0    NE   0.50   8.0   NNE   45.6   46.4   45.6   42.1  30.413  0.00  0.00     0     0.00      0     0.0  0.00   0.0   0.129   0.000   67.9    50   48.6   66.6   9.29  .0756    0.000   202    7    100.0   10 
 4/16/24  5:00a   46.4   46.5   46.4    85   42.1   5.0   NNE   0.83   9.0   NNE   44.0   46.4   44.0   40.6  30.412  0.00  0.00     0     0.00      0     0.0  0.00   0.0   0.129   0.000   67.9    50   48.6   66.6   9.29  .0756    0.001   203    7    100.0   10 
 4/16/24  5:10a   46.2   46.5   46.2    84   41.6   2.0    NE   0.33   9.0     N   46.2   46.2   46.2   42.7  30.411  0.00  0.00     0     0.00      0     0.0  0.00   0.0   0.131   0.000   67.8    50   48.5   66.5   9.29  .0756    0.000   205    7    100.0   10 
 4/16/24  5:20a   45.9   46.2   45.8    84   41.3   2.0    NE   0.33   7.0    NE   45.9   45.9   45.9   42.4  30.407  0.00  0.00     0     0.00      0     0.0  0.00   0.0   0.133   0.000   67.9    50   48.6   66.6   9.29  .0756    0.000   178    7     89.9   10 
 4/16/24  5:30a   45.5   45.9   45.5    85   41.3   2.0   ENE   0.33   5.0   ENE   45.5   45.5   45.5   42.0  30.407  0.00  0.00     0     0.00      0     0.0  0.00   0.0   0.135   0.000   67.9    49   48.0   66.5   9.09  .0756    0.000   203    7    100.0   10 
 4/16/24  5:40a   45.2   45.5   45.2    85   41.0   2.0     E   0.33   4.0   ENE   45.2   45.1   45.1   41.6  30.405  0.00  0.00     0     0.00      0     0.0  0.00   0.0   0.137   0.000   68.1    49   48.2   66.7   9.09  .0756    0.000   203    7    100.0   10 
 4/16/24  5:50a   45.1   45.2   45.0    85   40.9   2.0     E   0.33   4.0   ENE   45.1   45.0   45.0   41.5  30.406  0.00  0.00     0     0.00      0     0.0  0.00   0.0   0.138   0.000   68.3    49   48.4   66.9   9.08  .0755    0.000   204    7    100.0   10 
 4/16/24  6:00a   45.0   45.1   45.0    85   40.8   0.0     E   0.00   2.0     E   45.0   44.9   44.9   41.4  30.406  0.00  0.00     0     0.00      0     0.0  0.00   0.0   0.139   0.000   68.4    49   48.5   67.0   9.08  .0755    0.000   204    7    100.0   10 
 4/16/24  6:10a   44.9   45.0   44.8    85   40.7   1.0     E   0.17   2.0   ESE   44.9   44.8   44.8   41.3  30.400  0.00  0.00     0     0.00      0     0.0  0.00   0.0   0.140   0.000   68.5    49   48.6   67.1   9.08  .0755    0.000   201    7    100.0   10 
 4/16/24  6:20a   44.5   44.9   44.5    85   40.3   1.0     E   0.17   3.0     E   44.5   44.4   44.4   40.9  30.404  0.00  0.00     0     0.00      0     0.0  0.00   0.0   0.142   0.000   68.6    49   48.7   67.1   9.08  .0755    0.000   204    7    100.0   10 
 4/16/24  6:30a   44.5   44.6   44.5    86   40.6   1.0     E   0.17   2.0     E   44.5   44.4   44.4   40.9  30.406  0.00  0.00     0     0.00      0     0.0  0.00   0.0   0.142   0.000   68.8    49   48.9   67.3   9.07  .0754    0.000   200    7    100.0   10 
 4/16/24  6:40a   44.7   44.7   44.5    86   40.8   1.0   NNE   0.17   3.0   ENE   44.7   44.6   44.6   41.2  30.410  0.00  0.00     6     0.09     14     0.0  0.00   0.0   0.141   0.000   69.0    49   49.0   67.5   9.07  .0754    0.000   203    7    100.0   10 
 4/16/24  6:50a   44.9   45.0   44.7    87   41.3   1.0    NE   0.17   4.0   NNE   44.9   44.9   44.9   41.7  30.412  0.00  0.00    15     0.22     18     0.0  0.00   0.0   0.140   0.000   69.2    49   49.2   67.6   9.07  .0754    0.000   202    7    100.0   10 
 4/16/24  7:00a   44.9   45.0   44.8    87   41.3   1.0   ENE   0.17   2.0    NE   44.9   44.9   44.9   42.1  30.406  0.01  0.00    31     0.44     46     0.0  0.00   0.0   0.140   0.000   69.4    49   49.4   67.8   9.06  .0753    0.000   202    7    100.0   10 
 4/16/24  7:10a   44.8   44.9   44.8    87   41.2   0.0   SSE   0.00   3.0   SSE   44.8   44.8   44.8   42.4  30.407  0.00  0.00    50     0.72     58     0.0  0.00   0.0   0.140   0.000   69.5    49   49.5   67.9   9.06  .0753    0.000   205    7    100.0   10 
 4/16/24  7:20a   44.8   44.9   44.7    87   41.2   0.0   SSE   0.00   1.0   SSE   44.8   44.8   44.8   42.7  30.410  0.00  0.00    66     0.95     76     0.0  0.00   0.0   0.140   0.000   69.7    49   49.7   68.0   9.06  .0753    0.000   204    7    100.0   10 
 4/16/24  7:30a   45.0   45.0   44.8    87   41.4   0.0   SSE   0.00   2.0    SE   45.0   45.0   45.0   43.3  30.412  0.00  0.00    82     1.18     86     0.0  0.00   0.0   0.139   0.000   69.8    49   49.8   68.1   9.05  .0753    0.000   203    7    100.0   10 
 4/16/24  7:40a   45.2   45.2   45.0    87   41.6   0.0   ---   0.00   0.0   ---   45.2   45.2   45.2   43.4  30.411  0.00  0.00    78     1.12     81     0.0  0.00   0.0   0.137   0.000   69.9    49   49.9   68.1   9.05  .0753    0.000   202    7    100.0   10 
 4/16/24  7:50a   45.4   45.4   45.2    88   42.1   0.0   ---   0.00   0.0   ---   45.4   45.4   45.4   43.7  30.410  0.00  0.00    83     1.19     86     0.0  0.00   0.0   0.136   0.000   70.0    50   50.5   68.3   9.25  .0752    0.000   201    7    100.0   10 
 4/16/24  8:00a   45.7   45.7   45.4    88   42.3   0.0   ESE   0.00   1.0   ESE   45.7   45.7   45.7   44.7  30.407  0.00  0.00   114     1.63    176     0.0  0.00   0.0   0.134   0.000   70.1    50   50.6   68.4   9.25  .0752    0.001   200    7    100.0   10 
 4/16/24  8:10a   46.1   46.1   45.7    88   42.7   0.0   ESE   0.00   1.0   ESE   46.1   46.2   46.2   49.4  30.412  0.00  0.00   148     2.12    260     0.0  0.00   0.0   0.131   0.000   70.2    50   50.7   68.6   9.25  .0752    0.000   201    7    100.0   10 
 4/16/24  8:20a   47.2   47.2   46.1    89   44.1   1.0     E   0.17   2.0     E   47.2   47.4   47.4   55.7  30.410  0.00  0.00   271     3.88    283     0.5  0.04   0.5   0.124   0.000   70.3    50   50.8   68.7   9.25  .0752    0.000   204    7    100.0   10 
 4/16/24  8:30a   48.0   48.1   47.2    89   44.9   1.0   ENE   0.17   2.0     E   48.0   48.2   48.2   58.0  30.406  0.00  0.00   318     4.56    338     0.6  0.04   0.7   0.118   0.000   70.4    50   50.9   68.8   9.25  .0751    0.000   202    7    100.0   10 
 4/16/24  8:40a   48.5   48.5   48.0    89   45.4   0.0   ENE   0.00   2.0   ENE   48.5   48.7   48.7   60.2  30.414  0.00  0.00   373     5.35    410     0.8  0.06   0.8   0.115   0.000   70.5    49   50.4   68.9   9.05  .0752    0.000   200    7    100.0   10 
 4/16/24  8:50a   48.1   48.6   48.0    88   44.7   1.0    NE   0.17   3.0   NNW   48.1   48.2   48.2   59.3  30.416  0.00  0.00   379     5.43    394     0.9  0.06   0.9   0.117   0.000   70.5    49   50.4   68.9   9.05  .0752    0.000   203    7    100.0   10 
 4/16/24  9:00a   48.7   48.7   48.2    88   45.3   2.0   ENE   0.33   5.0   ENE   48.7   48.9   48.9   60.6  30.416  0.00  0.00   414     5.93    446     1.0  0.07   1.1   0.113   0.000   70.5    49   50.4   68.9   9.05  .0752    0.006   202    7    100.0   10 
 4/16/24  9:10a   47.9   48.8   47.9    85   43.6   4.0     N   0.67   9.0     N   46.5   47.9   46.5   58.7  30.417  0.00  0.00   453     6.49    471     1.2  0.09   1.2   0.119   0.000   70.6    49   50.5   69.0   9.05  .0752    0.000   203    7    100.0   10 
 4/16/24  9:20a   48.4   48.4   47.9    85   44.1   5.0     N   0.83   9.0   NNE   46.3   48.4   46.3   58.8  30.419  0.00  0.00   484     6.94    547     1.3  0.09   1.4   0.115   0.000   70.6    49   50.5   69.0   9.05  .0752    0.000   201    7    100.0   10 
 4/16/24  9:30a   48.2   48.4   48.2    85   43.9   5.0     N   0.83   9.0   NNE   46.1   48.2   46.1   59.3  30.418  0.00  0.00   533     7.64    563     1.5  0.11   1.6   0.117   0.000   70.6    49   50.5   69.0   9.05  .0752    0.000   203    7    100.0   10 
 4/16/24  9:40a   48.5   48.5   48.2    85   44.2   4.0     N   0.67   9.0   NNW   47.2   48.5   47.2   60.9  30.421  0.00  0.00   575     8.24    622     1.6  0.11   1.8   0.115   0.000   70.6    49   50.5   69.0   9.05  .0752    0.000   201    7    100.0   10 
 4/16/24  9:50a   48.6   48.6   48.4    85   44.3   5.0   NNW   0.83   9.0     N   46.6   48.7   46.7   61.2  30.421  0.00  0.00   628     9.00    714     1.8  0.13   2.0   0.114   0.000   70.5    49   50.4   68.9   9.05  .0752    0.000   203    7    100.0   10 
 4/16/24 10:00a   48.0   48.7   48.0    84   43.4   5.0     N   0.83   9.0   NNE   45.9   48.0   45.9   48.9  30.422  0.00  0.00   156     2.24    302     1.4  0.10   1.5   0.118   0.000   70.5    49   50.4   68.9   9.05  .0752    0.008   204    7    100.0   10 
 4/16/24 10:10a   47.3   48.0   47.3    85   43.0   6.0   NNW   1.00  10.0    NW   44.5   47.3   44.5   46.2  30.423  0.00  0.00   118     1.69    132     1.3  0.09   1.3   0.123   0.000   70.5    49   50.4   68.9   9.05  .0752    0.000   201    7    100.0   10 
 4/16/24 10:20a   47.8   47.8   47.3    85   43.5   5.0     N   0.83  10.0   NNE   45.7   47.8   45.7   51.7  30.422  0.00  0.00   272     3.90    476     1.7  0.12   2.2   0.119   0.000   70.4    49   50.3   68.7   9.05  .0752    0.000   204    7    100.0   10 
 4/16/24 10:30a   48.5   48.5   47.8    84   43.9   7.0   NNW   1.17  12.0    NW   45.4   48.5   45.4   51.7  30.422  0.00  0.00   301     4.31    408     2.3  0.16   2.8   0.115   0.000   70.4    49   50.3   68.7   9.05  .0752    0.000   203    7    100.0   10 
 4/16/24 10:40a   49.0   49.0   48.5    83   44.1   8.0     N   1.33  12.0     N   45.3   49.0   45.3   58.3  30.425  0.00  0.00   737    10.57    768     2.7  0.19   2.9   0.111   0.000   70.5    49   50.4   68.9   9.05  .0752    0.000   202    7    100.0   10 
 4/16/24 10:50a   48.9   49.2   48.8    83   44.0   7.0   NNE   1.17  11.0    NE   45.9   48.9   45.9   51.5  30.422  0.00  0.00   285     4.09    350     1.9  0.14   2.0   0.112   0.000   70.4    49   50.3   68.7   9.05  .0752    0.000   203    7    100.0   10 
 4/16/24 11:00a   48.9   49.0   48.6    83   44.0   7.0   NNE   1.17  12.0     N   45.9   48.9   45.9   51.8  30.422  0.00  0.00   303     4.34    403     2.1  0.15   3.2   0.112   0.000   70.3    49   50.2   68.6   9.05  .0752    0.007   205    7    100.0   10 
 4/16/24 11:10a   49.0   49.0   48.7    83   44.1   7.0   NNE   1.17  11.0   NNW   46.0   49.0   46.0   52.6  30.424  0.00  0.00   338     4.85    353     2.0  0.14   2.1   0.111   0.000   70.4    49   50.3   68.7   9.05  .0752    0.000   204    7    100.0   10 
 4/16/24 11:20a   49.2   49.2   49.0    82   43.9   6.0   NNE   1.00  11.0     N   46.7   49.2   46.7   53.3  30.423  0.00  0.00   336     4.82    348     2.1  0.15   2.1   0.110   0.000   70.3    49   50.2   68.6   9.05  .0752    0.000   203    7    100.0   10 
 4/16/24 11:30a   49.4   49.4   49.1    82   44.1   7.0   NNE   1.17  13.0   NNE   46.5   49.4   46.5   55.1  30.420  0.00  0.00   458     6.57    856     2.8  0.20   3.9   0.108   0.000   70.3    49   50.2   68.6   9.05  .0752    0.000   205    7    100.0   10 
 4/16/24 11:40a   50.2   50.2   49.4    81   44.6   7.0   NNE   1.17  12.0   NNE   47.4   50.2   47.4   57.8  30.418  0.00  0.00   702    10.06    851     3.7  0.26   4.3   0.103   0.000   70.4    49   50.3   68.7   9.05  .0752    0.000   202    7    100.0   10 
 4/16/24 11:50a   50.3   50.3   50.0    81   44.7   7.0   NNE   1.17  14.0    NE   47.6   50.3   47.6   57.4  30.417  0.00  0.00   569     8.16    643     3.5  0.25   3.7   0.102   0.000   70.4    49   50.3   68.7   9.05  .0752    0.000   204    7    100.0   10 
 4/16/24 12:00p   50.0   50.3   49.9    80   44.1  11.0     N   1.83  17.0     N   44.8   50.0   44.8   53.2  30.413  0.00  0.00   674     9.66    768     3.9  0.28   4.1   0.104   0.000   70.3    49   50.2   68.6   9.05  .0752    0.010   204    7    100.0   10 
 4/16/24 12:10p   50.5   50.6   50.0    80   44.6  10.0   NNE   1.67  17.0   NNE   45.9   50.5   45.9   55.7  30.410  0.00  0.00   776    11.12    803     4.2  0.30   4.3   0.101   0.000   70.3    49   50.2   68.6   9.05  .0752    0.000   203    7    100.0   10 
 4/16/24 12:20p   50.2   50.4   50.0    81   44.6  10.0   NNE   1.67  16.0    NE   45.5   50.2   45.5   54.5  30.413  0.00  0.00   675     9.68    742     3.8  0.27   4.3   0.103   0.000   70.4    49   50.3   68.7   9.05  .0752    0.000   202    7    100.0   10 
 4/16/24 12:30p   49.9   50.1   49.8    81   44.3  11.0   NNE   1.83  16.0   NNE   44.7   49.9   44.7   51.4  30.411  0.00  0.00   436     6.25    436     4.1  0.29   4.6   0.105   0.000   70.4    49   50.3   68.7   9.05  .0752    0.000   202    7    100.0   10 
 4/16/24 12:40p   50.9   51.0   49.9    81   45.3   9.0   NNE   1.50  14.0    NE   47.0   50.8   46.9   57.5  30.410  0.00  0.00   822    11.78    916     4.7  0.34   5.0   0.098   0.000   70.4    49   50.3   68.7   9.05  .0752    0.000   203    7    100.0   10 
 4/16/24 12:50p   50.8   51.1   50.8    80   44.9  10.0     N   1.67  17.0   NNE   46.3   50.7   46.2   57.2  30.409  0.00  0.00   881    12.63    888     5.0  0.36   5.0   0.099   0.000   70.5    50   51.0   68.9   9.25  .0751    0.000   203    7    100.0   10 
 4/16/24  1:00p   50.8   51.0   50.6    79   44.5  10.0     N   1.67  15.0   NNE   46.3   50.7   46.2   57.2  30.409  0.00  0.00   883    12.66    888     5.0  0.36   5.1   0.099   0.000   70.6    49   50.5   69.0   9.05  .0751    0.015   203    7    100.0   10 
 4/16/24  1:10p   51.1   51.3   50.8    79   44.8   9.0   NNE   1.50  17.0     N   47.2   51.0   47.1   58.4  30.410  0.00  0.00   883    12.66    889     5.1  0.36   5.1   0.097   0.000   70.7    49   50.6   69.1   9.05  .0751    0.000   203    7    100.0   10 
 4/16/24  1:20p   51.2   51.4   51.0    79   44.9  10.0   NNE   1.67  16.0     N   46.7   51.0   46.5   57.4  30.408  0.00  0.00   881    12.63    891     5.1  0.36   5.1   0.096   0.000   70.7    49   50.6   69.1   9.05  .0751    0.000   200    7    100.0   10 
 4/16/24  1:30p   51.0   51.5   51.0    78   44.4  11.0   NNE   1.83  17.0     N   45.9   50.8   45.7   55.3  30.406  0.00  0.00   817    11.71    889     4.7  0.34   5.1   0.097   0.000   70.8    49   50.7   69.2   9.05  .0751    0.000   203    7    100.0   10 
 4/16/24  1:40p   51.3   51.4   51.0    78   44.7  12.0   NNE   2.00  19.0    NE   45.8   51.1   45.6   56.1  30.405  0.00  0.00   895    12.83    905     5.1  0.36   5.1   0.095   0.000   70.9    49   50.8   69.4   9.05  .0751    0.000   202    7    100.0   10 
 4/16/24  1:50p   51.3   51.4   51.2    77   44.3  12.0     N   2.00  20.0     N   45.8   51.1   45.6   55.7  30.403  0.00  0.00   859    12.31    898     4.9  0.35   5.0   0.095   0.000   71.0    50   51.4   69.6   9.25  .0750    0.000   204    7    100.0   10 
 4/16/24  2:00p   51.3   51.3   51.1    77   44.3  13.0   NNE   2.17  21.0   NNE   45.4   51.1   45.2   53.9  30.404  0.00  0.00   780    11.18    872     4.6  0.33   4.9   0.095   0.000   71.0    49   50.9   69.5   9.05  .0751    0.017   203    7    100.0   10 
 4/16/24  2:10p   51.2   51.3   51.1    76   43.9  13.0   NNE   2.17  20.0   NNE   45.2   50.9   44.9   54.9  30.402  0.00  0.00   861    12.34    874     4.8  0.34   4.9   0.096   0.000   71.1    49   51.0   69.6   9.05  .0750    0.000   205    7    100.0   10 
 4/16/24  2:20p   51.5   51.7   51.2    75   43.8  13.0   NNE   2.17  20.0   NNE   45.6   51.2   45.3   55.4  30.404  0.00  0.00   852    12.21    858     4.7  0.34   4.8   0.094   0.000   71.2    49   51.1   69.8   9.05  .0750    0.000   203    7    100.0   10 
 4/16/24  2:30p   52.0   52.2   51.5    75   44.3  12.0   NNE   2.00  20.0    NE   46.6   51.6   46.2   56.7  30.402  0.00  0.00   845    12.11    851     4.7  0.34   4.7   0.090   0.000   71.1    49   51.0   69.6   9.05  .0750    0.000   203    7    100.0   10 
 4/16/24  2:40p   51.9   52.1   51.9    76   44.6  13.0   NNE   2.17  21.0    NE   46.1   51.5   45.7   55.7  30.406  0.00  0.00   819    11.74    831     4.4  0.31   4.5   0.091   0.000   71.1    49   51.0   69.6   9.05  .0750    0.000   202    7    100.0   10 
 4/16/24  2:50p   51.7   52.0   51.7    75   44.0  13.0   NNE   2.17  22.0   NNE   45.8   51.3   45.4   55.5  30.404  0.00  0.00   804    11.53    814     4.3  0.31   4.4   0.092   0.000   71.2    49   51.1   69.8   9.05  .0750    0.000   203    7    100.0   10 
 4/16/24  3:00p   51.8   52.0   51.7    74   43.8  13.0     N   2.17  22.0     N   46.0   51.4   45.6   55.8  30.406  0.00  0.00   800    11.47    809     4.2  0.30   4.2   0.092   0.000   71.2    49   51.1   69.8   9.05  .0750    0.017   202    7    100.0   10 
 4/16/24  3:10p   51.9   52.1   51.6    73   43.5  13.0   NNE   2.17  21.0     N   46.1   51.4   45.6   55.9  30.406  0.00  0.00   781    11.20    798     4.0  0.29   4.1   0.091   0.000   71.3    49   51.1   70.0   9.05  .0750    0.000   203    7    100.0   10 
 4/16/24  3:20p   52.3   52.3   51.8    73   43.9  12.0   NNE   2.00  20.0     N   46.9   51.8   46.4   56.8  30.404  0.00  0.00   745    10.68    775     3.8  0.27   3.9   0.088   0.000   71.3    49   51.1   70.0   9.05  .0750    0.000   203    7    100.0   10 
 4/16/24  3:30p   51.9   52.3   51.7    74   43.9  14.0   NNE   2.33  20.0    NE   45.7   51.5   45.3   55.0  30.398  0.00  0.00   720    10.32    744     3.6  0.26   3.7   0.091   0.000   71.4    49   51.2   70.1   9.05  .0750    0.000   202    7    100.0   10 
 4/16/24  3:40p   52.2   52.2   51.9    73   43.8  13.0   NNE   2.17  21.0   NNE   46.4   51.7   45.9   55.8  30.398  0.00  0.00   693     9.93    714     3.3  0.24   3.4   0.089   0.000   71.4    49   51.2   70.1   9.05  .0750    0.000   204    7    100.0   10 
 4/16/24  3:50p   52.3   52.5   52.2    73   43.9  12.0   NNE   2.00  19.0    NE   46.9   51.8   46.4   56.8  30.396  0.00  0.00   679     9.73    696     3.1  0.22   3.2   0.088   0.000   71.4    49   51.2   70.1   9.05  .0750    0.000   201    7    100.0   10 
 4/16/24  4:00p   51.9   52.3   51.9    72   43.2  14.0   NNE   2.33  20.0   NNW   45.7   51.4   45.2   55.4  30.395  0.00  0.00   674     9.66    684     3.0  0.21   3.0   0.091   0.000   71.4    49   51.2   70.1   9.05  .0750    0.016   205    7    100.0   10 
 4/16/24  4:10p   51.9   52.0   51.9    74   43.9  14.0   NNE   2.33  21.0     N   45.7   51.5   45.3   54.7  30.394  0.00  0.00   609     8.73    656     2.6  0.19   2.8   0.091   0.000   71.6    49   51.4   70.4   9.05  .0749    0.000   204    7    100.0   10 
 4/16/24  4:20p   52.0   52.1   51.8    74   44.0  13.0   NNE   2.17  20.0     N   46.2   51.6   45.8   56.3  30.393  0.00  0.00   621     8.90    635     2.5  0.18   2.6   0.090   0.000   71.6    49   51.4   70.4   9.05  .0749    0.000   203    7    100.0   10 
 4/16/24  4:30p   52.0   52.3   51.9    73   43.6  13.0   NNE   2.17  20.0   NNE   46.2   51.5   45.7   56.3  30.395  0.00  0.00   599     8.59    612     2.3  0.16   2.4   0.090   0.000   71.6    49   51.4   70.4   9.05  .0749    0.000   203    7    100.0   10 
 4/16/24  4:40p   51.6   52.1   51.6    74   43.6  14.0   NNE   2.33  22.0     N   45.4   51.2   45.0   55.2  30.396  0.00  0.00   571     8.19    582     2.1  0.15   2.2   0.093   0.000   71.6    48   50.9   70.3   8.88  .0750    0.000   205    7    100.0   10 
 4/16/24  4:50p   51.6   51.8   51.5    73   43.2  13.0   NNE   2.17  19.0     N   45.7   51.2   45.3   55.5  30.394  0.00  0.00   530     7.60    550     1.9  0.14   2.0   0.093   0.000   71.7    48   51.0   70.4   8.88  .0749    0.000   202    7    100.0   10 
 4/16/24  5:00p   51.7   51.9   51.6    71   42.6  12.0   NNE   2.00  19.0   NNE   46.2   51.2   45.7   56.3  30.394  0.00  0.00   512     7.34    522     1.8  0.13   1.8   0.092   0.000   71.7    49   51.5   70.5   9.05  .0749    0.013   202    7    100.0   10 
 4/16/24  5:10p   51.8   51.9   51.7    72   43.1  13.0   NNE   2.17  20.0     N   46.0   51.3   45.5   55.3  30.394  0.00  0.00   468     6.71    492     1.5  0.11   1.6   0.092   0.000   71.7    49   51.5   70.5   9.05  .0749    0.000   204    7    100.0   10 
 4/16/24  5:20p   51.9   51.9   51.6    70   42.4  12.0   NNE   2.00  19.0     N   46.5   51.3   45.9   56.4  30.395  0.00  0.00   459     6.58    471     1.4  0.10   1.4   0.091   0.000   71.8    49   51.6   70.7   9.05  .0749    0.000   203    7    100.0   10 
 4/16/24  5:30p   51.8   52.2   51.8    70   42.3  12.0   NNE   2.00  20.0   NNE   46.4   51.2   45.8   56.0  30.394  0.00  0.00   424     6.08    439     1.2  0.09   1.3   0.092   0.000   71.8    49   51.6   70.7   9.05  .0749    0.000   204    7    100.0   10 
 4/16/24  5:40p   51.4   51.8   51.4    72   42.7  14.0   NNE   2.33  19.0     N   45.1   50.9   44.6   53.7  30.395  0.00  0.00   393     5.63    410     1.1  0.08   1.1   0.094   0.000   71.8    49   51.6   70.7   9.05  .0749    0.000   204    7    100.0   10 
 4/16/24  5:50p   51.7   51.8   51.4    71   42.6  12.0   NNE   2.00  20.0   NNE   46.2   51.2   45.7   55.0  30.393  0.00  0.00   365     5.23    380     0.9  0.06   1.0   0.092   0.000   71.8    49   51.6   70.7   9.05  .0749    0.000   204    7    100.0   10 
 4/16/24  6:00p   52.0   52.0   51.7    73   43.6  11.0   NNE   1.83  19.0   NNE   47.1   51.5   46.6   55.5  30.392  0.00  0.00   331     4.74    345     0.8  0.06   0.8   0.090   0.000   71.9    49   51.7   70.9   9.05  .0749    0.010   204    7    100.0   10 
 4/16/24  6:10p   51.6   52.3   51.6    73   43.2  11.0   NNE   1.83  20.0     N   46.6   51.2   46.2   54.4  30.391  0.00  0.00   295     4.23    313     0.6  0.04   0.7   0.093   0.000   71.9    49   51.7   70.9   9.05  .0749    0.000   200    7    100.0   10 
 4/16/24  6:20p   51.2   51.7   51.2    74   43.2  12.0   NNE   2.00  19.0    NE   45.6   50.8   45.2   52.4  30.394  0.00  0.00   266     3.81    281     0.5  0.04   0.6   0.096   0.000   71.9    49   51.7   70.9   9.05  .0749    0.000   200    7    100.0   10 
 4/16/24  6:30p   51.2   51.3   51.1    71   42.1  12.0   NNE   2.00  18.0    NE   45.6   50.7   45.1   46.2  30.392  0.00  0.00   224     3.21    246     0.1  0.01   0.5   0.096   0.000   72.0    49   51.8   71.0   9.05  .0749    0.000   204    7    100.0   10 
 4/16/24  6:40p   51.0   51.2   50.9    70   41.6  13.0   NNE   2.17  19.0   NNE   45.0   50.5   44.5   44.8  30.393  0.00  0.00   182     2.61    200     0.0  0.00   0.0   0.097   0.000   72.0    49   51.8   71.0   9.05  .0749    0.000   202    7    100.0   10 
 4/16/24  6:50p   51.0   51.1   50.9    71   41.9  12.0   NNE   2.00  20.0     N   45.4   50.5   44.9   44.6  30.392  0.00  0.00   144     2.06    155     0.0  0.00   0.0   0.097   0.000   72.0    49   51.8   71.0   9.05  .0749    0.000   201    7    100.0   10 
 4/16/24  7:00p   50.6   51.0   50.6    73   42.3  12.0   NNE   2.00  20.0   NNE   45.0   50.3   44.7   43.7  30.393  0.00  0.00   102     1.46    130     0.0  0.00   0.0   0.100   0.000   72.0    49   51.8   71.0   9.05  .0749    0.006   203    7    100.0   10 
 4/16/24  7:10p   50.4   50.6   50.3    73   42.1  12.0   NNE   2.00  20.0     N   44.7   50.1   44.4   42.9  30.393  0.00  0.00    78     1.12     91     0.0  0.00   0.0   0.101   0.000   72.0    49   51.8   71.0   9.05  .0749    0.000   204    7    100.0   10 
 4/16/24  7:20p   50.0   50.4   50.0    74   42.0  13.0   NNE   2.17  20.0   NNE   43.9   49.8   43.7   41.9  30.393  0.00  0.00    51     0.73     63     0.0  0.00   0.0   0.104   0.000   72.0    48   51.2   70.9   8.89  .0749    0.000   203    7    100.0   10 
 4/16/24  7:30p   49.8   50.0   49.8    73   41.5  12.0   NNE   2.00  19.0     N   44.1   49.5   43.8   41.5  30.394  0.00  0.00    31     0.44     39     0.0  0.00   0.0   0.106   0.000   71.9    48   51.1   70.8   8.89  .0749    0.000   201    7    100.0   10 
 4/16/24  7:40p   49.6   49.9   49.6    74   41.7  12.0   NNE   2.00  22.0   NNE   43.9   49.3   43.6   41.1  30.394  0.00  0.00    23     0.33     25     0.0  0.00   0.0   0.107   0.000   71.9    48   51.1   70.8   8.89  .0749    0.000   202    7    100.0   10 
 4/16/24  7:50p   49.2   49.6   49.2    74   41.3  11.0    NE   1.83  18.0     N   43.8   48.9   43.5   40.9  30.396  0.00  0.00    16     0.23     19     0.0  0.00   0.0   0.110   0.000   71.8    48   51.0   70.6   8.89  .0749    0.000   202    7    100.0   10 
 4/16/24  8:00p   48.8   49.2   48.8    75   41.2   8.0    NE   1.33  16.0     E   45.1   48.5   44.8   41.7  30.396  0.00  0.00     9     0.13     12     0.0  0.00   0.0   0.113   0.000   71.7    49   51.5   70.5   9.05  .0749    0.003   203    7    100.0   10 
 4/16/24  8:10p   48.1   48.8   48.1    75   40.5   7.0    NE   1.17  14.0   NNE   44.9   47.8   44.6   41.1  30.394  0.00  0.00     3     0.04      7     0.0  0.00   0.0   0.117   0.000   71.6    48   50.9   70.3   8.88  .0749    0.000   201    7    100.0   10 
 4/16/24  8:20p   47.7   48.1   47.7    75   40.2   7.0    NE   1.17  15.0    NE   44.4   47.4   44.1   40.6  30.393  0.00  0.00     0     0.00      0     0.0  0.00   0.0   0.120   0.000   71.5    48   50.8   70.2   8.88  .0750    0.000   201    7    100.0   10 
 4/16/24  8:30p   47.4   47.7   47.3    76   40.2   7.0    NE   1.17  15.0   ENE   44.1   47.1   43.8   40.3  30.396  0.00  0.00     0     0.00      0     0.0  0.00   0.0   0.122   0.000   71.5    48   50.8   70.2   8.88  .0750    0.000   203    7    100.0   10 
 4/16/24  8:40p   47.0   47.4   47.0    76   39.8   6.0    NE   1.00  12.0    NE   44.1   46.7   43.8   40.2  30.399  0.00  0.00     0     0.00      0     0.0  0.00   0.0   0.125   0.000   71.3    48   50.6   69.9   8.88  .0750    0.000   201    7    100.0   10 
 4/16/24  8:50p   46.7   47.0   46.7    76   39.5   5.0    NE   0.83  12.0    NE   44.3   46.4   44.0   40.4  30.402  0.00  0.00     0     0.00      0     0.0  0.00   0.0   0.127   0.000   71.2    48   50.5   69.7   8.87  .0750    0.000   204    7    100.0   10 
 4/16/24  9:00p   46.3   46.7   46.3    76   39.1   5.0    NE   0.83  11.0   NNE   43.9   46.0   43.6   40.0  30.406  0.00  0.00     0     0.00      0     0.0  0.00   0.0   0.130   0.000   71.2    48   50.5   69.7   8.87  .0750    0.001   203    7    100.0   10 
 4/16/24  9:10p   46.3   46.4   46.2    76   39.1   5.0    NE   0.83  10.0    NE   43.9   46.0   43.6   40.0  30.409  0.00  0.00     0     0.00      0     0.0  0.00   0.0   0.130   0.000   71.1    48   50.4   69.6   8.87  .0751    0.000   205    7    100.0   10 
 4/16/24  9:20p   46.1   46.2   46.1    77   39.3   4.0    NE   0.67  10.0   NNE   44.3   45.8   44.0   40.4  30.412  0.00  0.00     0     0.00      0     0.0  0.00   0.0   0.131   0.000   71.0    48   50.3   69.4   8.87  .0751    0.000   203    7    100.0   10 
 4/16/24  9:30p   46.1   46.2   46.1    77   39.3   5.0    NE   0.83  13.0   ENE   43.6   45.8   43.3   39.7  30.411  0.00  0.00     0     0.00      0     0.0  0.00   0.0   0.131   0.000   71.0    48   50.3   69.4   8.87  .0751    0.000   201    7    100.0   10 
 4/16/24  9:40p   46.1   46.1   46.0    77   39.3   5.0    NE   0.83  13.0    NE   43.6   45.8   43.3   39.7  30.412  0.00  0.00     0     0.00      0     0.0  0.00   0.0   0.131   0.000   70.9    48   50.2   69.3   8.87  .0751    0.000   201    7    100.0   10 
 4/16/24  9:50p   46.1   46.1   46.0    77   39.3   6.0    NE   1.00  12.0    NE   43.0   45.8   42.7   39.1  30.414  0.00  0.00     0     0.00      0     0.0  0.00   0.0   0.131   0.000   70.9    48   50.2   69.3   8.87  .0751    0.000   203    7    100.0   10 
 4/16/24 10:00p   46.2   46.2   46.1    77   39.4   6.0    NE   1.00  13.0   NNE   43.1   45.9   42.8   39.2  30.413  0.00  0.00     0     0.00      0     0.0  0.00   0.0   0.131   0.000   70.8    48   50.1   69.1   8.87  .0751    0.001   202    7    100.0   10 
 4/16/24 10:10p   46.3   46.3   46.1    77   39.5   7.0    NE   1.17  15.0    NE   42.8   46.0   42.5   38.9  30.416  0.00  0.00     0     0.00      0     0.0  0.00   0.0   0.130   0.000   70.7    48   50.0   69.0   8.86  .0752    0.000   202    7    100.0   10 
 4/16/24 10:20p   46.3   46.4   46.2    77   39.5   5.0   ENE   0.83  14.0   NNE   43.9   46.0   43.6   40.0  30.417  0.00  0.00     0     0.00      0     0.0  0.00   0.0   0.130   0.000   70.7    48   50.0   69.0   8.86  .0752    0.000   204    7    100.0   10 
 4/16/24 10:30p   46.3   46.3   46.2    77   39.5   6.0   ENE   1.00  12.0   ENE   43.3   46.0   43.0   39.4  30.420  0.00  0.00     0     0.00      0     0.0  0.00   0.0   0.130   0.000   70.6    48   50.0   68.9   8.86  .0752    0.000   203    7    100.0   10 
 4/16/24 10:40p   46.2   46.3   46.2    77   39.4   6.0   ENE   1.00  12.0     E   43.1   45.9   42.8   39.2  30.418  0.00  0.00     0     0.00      0     0.0  0.00   0.0   0.131   0.000   70.5    48   49.9   68.8   8.86  .0752    0.000   203    7    100.0   10 
 4/16/24 10:50p   46.4   46.4   46.1    77   39.6   6.0   ENE   1.00  13.0    NE   43.4   46.1   43.1   39.5  30.421  0.00  0.00     0     0.00      0     0.0  0.00   0.0   0.129   0.000   70.5    48   49.9   68.8   8.86  .0752    0.000   202    7    100.0   10 
 4/16/24 11:00p   46.3   46.4   46.2    77   39.5   6.0    NE   1.00  12.0     E   43.3   46.0   43.0   39.4  30.420  0.00  0.00     0     0.00      0     0.0  0.00   0.0   0.130   0.000   70.4    48   49.8   68.6   8.86  .0752    0.001   202    7    100.0   10 
 4/16/24 11:10p   46.1   46.3   46.1    77   39.3   6.0   ENE   1.00  13.0    NE   43.0   45.8   42.7   39.1  30.420  0.00  0.00     0     0.00      0     0.0  0.00   0.0   0.131   0.000   70.3    48   49.7   68.5   8.86  .0752    0.000   204    7    100.0   10 
 4/16/24 11:20p   46.1   46.2   46.0    77   39.3   6.0   ENE   1.00  15.0   ENE   43.0   45.8   42.7   39.1  30.423  0.00  0.00     0     0.00      0     0.0  0.00   0.0   0.131   0.000   70.2    48   49.6   68.4   8.85  .0753    0.000   203    7    100.0   10 
 4/16/24 11:30p   46.0   46.1   46.0    77   39.2   6.0    NE   1.00  13.0   ENE   42.9   45.7   42.6   39.0  30.426  0.00  0.00     0     0.00      0     0.0  0.00   0.0   0.132   0.000   70.1    48   49.5   68.2   8.85  .0753    0.000   202    7    100.0   10 
 4/16/24 11:40p   46.0   46.1   46.0    77   39.2   6.0    NE   1.00  15.0    NE   42.9   45.7   42.6   39.0  30.425  0.00  0.00     0     0.00      0     0.0  0.00   0.0   0.132   0.000   70.1    48   49.5   68.2   8.85  .0753    0.000   203    7    100.0   10 
 4/16/24 11:50p   45.8   46.1   45.8    77   39.0   5.0   ENE   0.83  10.0   ENE   43.3   45.5   43.0   39.4  30.426  0.00  0.00     0     0.00      0     0.0  0.00   0.0   0.133   0.000   70.0    48   49.4   68.1   8.85  .0753    0.000   203    7    100.0   10 
 4/17/24 12:00a   45.9   46.0   45.8    78   39.4   6.0   ENE   1.00  16.0   ENE   42.8   45.6   42.5   38.9  30.427  0.00  0.00     0     0.00      0     0.0  0.00   0.0   0.133   0.000   69.9    48   49.3   68.0   8.85  .0753    0.001   203    7    100.0   10 
 4/17/24 12:10a   45.9   46.0   45.8    78   39.4   5.0   ENE   0.83  13.0    NE   43.4   45.6   43.1   39.5  30.425  0.00  0.00     0     0.00      0     0.0  0.00   0.0   0.133   0.000   69.8    48   49.2   68.0   8.85  .0753    0.000   200    7    100.0   10 
 4/17/24 12:20a   45.7   45.9   45.7    78   39.2   5.0   ENE   0.83  10.0    NE   43.1   45.4   42.8   39.2  30.424  0.00  0.00     0     0.00      0     0.0  0.00   0.0   0.134   0.000   69.8    48   49.2   68.0   8.85  .0753    0.000   202    7    100.0   10 
 4/17/24 12:30a   45.6   45.7   45.5    78   39.1   6.0   ENE   1.00  13.0   ENE   42.4   45.3   42.1   38.5  30.426  0.00  0.00     0     0.00      0     0.0  0.00   0.0   0.135   0.000   69.7    48   49.1   67.9   8.86  .0754    0.000   201    7    100.0   10 
 4/17/24 12:40a   45.5   45.6   45.4    78   39.0   5.0   ENE   0.83  12.0   ENE   42.9   45.2   42.6   39.0  30.427  0.00  0.00     0     0.00      0     0.0  0.00   0.0   0.135   0.000   69.6    48   49.0   67.8   8.86  .0754    0.000   202    7    100.0   10 
 4/17/24 12:50a   45.2   45.5   45.2    78   38.7   3.0   ENE   0.50   8.0     N   44.2   44.9   43.9   40.3  30.425  0.00  0.00     0     0.00      0     0.0  0.00   0.0   0.137   0.000   69.6    48   49.0   67.8   8.86  .0754    0.000   204    7    100.0   10 
 4/17/24  1:00a   45.0   45.2   45.0    79   38.9   5.0   ENE   0.83  12.0   NNE   42.3   44.8   42.1   38.5  30.425  0.00  0.00     0     0.00      0     0.0  0.00   0.0   0.139   0.000   69.5    48   48.9   67.8   8.86  .0754    0.001   204    7    100.0   10 
 4/17/24  1:10a   44.9   45.1   44.9    79   38.8   4.0   ENE   0.67  12.0   NNE   43.0   44.7   42.8   39.2  30.426  0.00  0.00     0     0.00      0     0.0  0.00   0.0   0.140   0.000   69.4    48   48.9   67.7   8.86  .0754    0.000   201    7    100.0   10 
 4/17/24  1:20a   44.9   44.9   44.8    78   38.5   5.0   ENE   0.83  11.0   ENE   42.2   44.6   41.9   38.3  30.425  0.00  0.00     0     0.00      0     0.0  0.00   0.0   0.140   0.000   69.3    48   48.8   67.6   8.86  .0754    0.000   201    7    100.0   10 
 4/17/24  1:30a   45.0   45.0   44.9    78   38.6   6.0   ENE   1.00  13.0    NE   41.7   44.7   41.4   37.8  30.424  0.00  0.00     0     0.00      0     0.0  0.00   0.0   0.139   0.000   69.3    48   48.8   67.6   8.86  .0754    0.000   205    7    100.0   10 
 4/17/24  1:40a   45.2   45.2   45.0    78   38.7   6.0   ENE   1.00  14.0    NE   41.9   44.9   41.6   38.0  30.423  0.00  0.00     0     0.00      0     0.0  0.00   0.0   0.137   0.000   69.2    48   48.7   67.5   8.87  .0754    0.000   204    7    100.0   10 
 4/17/24  1:50a   45.2   45.2   45.1    78   38.7   6.0   ENE   1.00  13.0   ENE   41.9   44.9   41.6   38.0  30.420  0.00  0.00     0     0.00      0     0.0  0.00   0.0   0.137   0.000   69.1    48   48.6   67.5   8.87  .0754    0.000   200    7    100.0   10 
 4/17/24  2:00a   45.1   45.2   45.1    77   38.3   5.0   ENE   0.83  13.0    NE   42.4   44.8   42.1   38.5  30.419  0.00  0.00     0     0.00      0     0.0  0.00   0.0   0.138   0.000   69.1    48   48.6   67.5   8.87  .0754    0.001   203    7    100.0   10 
 4/17/24  2:10a   44.9   45.1   44.9    77   38.1   4.0   ENE   0.67   9.0   ENE   43.0   44.6   42.7   39.1  30.419  0.00  0.00     0     0.00      0     0.0  0.00   0.0   0.140   0.000   69.0    48   48.5   67.4   8.87  .0755    0.000   202    7    100.0   10 
 4/17/24  2:20a   44.7   44.9   44.7    77   37.9   4.0   ENE   0.67  11.0    NE   42.7   44.4   42.4   38.8  30.418  0.00  0.00     0     0.00      0     0.0  0.00   0.0   0.141   0.000   68.9    48   48.4   67.3   8.87  .0755    0.000   202    7    100.0   10 
 4/17/24  2:30a   44.2   44.7   44.1    77   37.4   3.0   ENE   0.50   7.0    NE   43.1   43.9   42.8   39.2  30.417  0.00  0.00     0     0.00      0     0.0  0.00   0.0   0.144   0.000   68.8    48   48.3   67.2   8.87  .0755    0.000   200    7    100.0   10 
 4/17/24  2:40a   43.6   44.1   43.6    77   36.9   3.0   ENE   0.50   5.0   ENE   42.5   43.3   42.2   38.5  30.418  0.00  0.00     0     0.00      0     0.0  0.00   0.0   0.149   0.000   68.8    48   48.3   67.2   8.87  .0755    0.000   203    7    100.0   10 
 4/17/24  2:50a   42.9   43.6   42.9    78   36.5   3.0     E   0.50   6.0   ENE   41.7   42.6   41.4   37.7  30.415  0.00  0.00     0     0.00      0     0.0  0.00   0.0   0.153   0.000   68.7    48   48.2   67.1   8.88  .0755    0.000   203    7    100.0   10 
 4/17/24  3:00a   42.4   42.9   42.4    78   36.0   2.0     E   0.33   8.0   ENE   42.4   42.1   42.1   38.4  30.414  0.00  0.00     0     0.00      0     0.0  0.00   0.0   0.157   0.000   68.6    48   48.1   67.0   8.88  .0755    0.001   202    7    100.0   10 
 4/17/24  3:10a   42.0   42.4   41.9    79   36.0   3.0     E   0.50   4.0     E   40.6   41.7   40.3   36.6  30.413  0.00  0.00     0     0.00      0     0.0  0.00   0.0   0.160   0.000   68.6    48   48.1   67.0   8.88  .0755    0.000   201    7    100.0   10 
 4/17/24  3:20a   41.7   41.9   41.7    79   35.7   3.0     E   0.50   7.0     E   40.3   41.4   40.0   36.3  30.410  0.00  0.00     0     0.00      0     0.0  0.00   0.0   0.162   0.000   68.5    48   48.0   66.9   8.88  .0755    0.000   204    7    100.0   10 
 4/17/24  3:30a   41.4   41.7   41.4    80   35.7   3.0     E   0.50   4.0   ESE   39.9   41.1   39.6   35.9  30.410  0.00  0.00     0     0.00      0     0.0  0.00   0.0   0.164   0.000   68.4    48   47.9   66.9   8.88  .0755    0.000   201    7    100.0   10 
 4/17/24  3:40a   41.0   41.4   41.0    80   35.3   3.0     E   0.50   5.0     E   39.5   40.7   39.2   35.5  30.408  0.00  0.00     0     0.00      0     0.0  0.00   0.0   0.167   0.000   68.3    48   47.8   66.8   8.88  .0755    0.000   203    7    100.0   10 
 4/17/24  3:50a   40.7   41.0   40.7    80   35.0   3.0     E   0.50   4.0   ENE   39.2   40.4   38.9   35.2  30.406  0.00  0.00     0     0.00      0     0.0  0.00   0.0   0.169   0.000   68.2    48   47.8   66.7   8.89  .0756    0.000   202    7    100.0   10 
 4/17/24  4:00a   40.6   40.7   40.6    81   35.2   3.0     E   0.50   6.0     E   39.1   40.3   38.8   35.1  30.408  0.00  0.00     0     0.00      0     0.0  0.00   0.0   0.169   0.000   68.1    48   47.7   66.6   8.89  .0756    0.001   203    7    100.0   10 
 4/17/24  4:10a   40.5   40.6   40.5    81   35.1   3.0     E   0.50   7.0   ESE   39.0   40.2   38.7   35.0  30.409  0.00  0.00     0     0.00      0     0.0  0.00   0.0   0.170   0.000   68.0    48   47.6   66.5   8.89  .0756    0.000   201    7    100.0   10 
 4/17/24  4:20a   40.5   40.5   40.4    81   35.1   4.0     E   0.67   6.0     E   37.9   40.2   37.6   33.9  30.409  0.00  0.00     0     0.00      0     0.0  0.00   0.0   0.170   0.000   68.0    48   47.6   66.5   8.89  .0756    0.000   199    7    100.0   10 
 4/17/24  4:30a   40.6   40.6   40.5    82   35.5   4.0     E   0.67   7.0   ESE   38.0   40.3   37.7   34.0  30.409  0.00  0.00     0     0.00      0     0.0  0.00   0.0   0.169   0.000   67.9    48   47.5   66.4   8.89  .0756    0.000   201    7    100.0   10 
Email: AdamSPAM@StormwatchersRetreat.com (To send me email remove the word 'SPAM' from my email address.)